sensor_id;sensor_type;location;lat;lon;timestamp;pressure;altitude;pressure_sealevel;temperature;humidity
15884;BME280;8040;50.254;10.960;2022-12-07T00:02:14;98149.13;;;5.25;78.45
15884;BME280;8040;50.254;10.960;2022-12-07T00:04:39;98156.91;;;5.31;78.57
15884;BME280;8040;50.254;10.960;2022-12-07T00:07:04;98151.53;;;5.26;78.61
15884;BME280;8040;50.254;10.960;2022-12-07T00:09:30;98168.22;;;5.38;78.66
15884;BME280;8040;50.254;10.960;2022-12-07T00:11:55;98149.94;;;5.30;78.96
15884;BME280;8040;50.254;10.960;2022-12-07T00:14:21;98148.31;;;5.29;78.82
15884;BME280;8040;50.254;10.960;2022-12-07T00:16:49;98167.69;;;5.41;78.91
15884;BME280;8040;50.254;10.960;2022-12-07T00:19:15;98160.97;;;5.44;78.23
15884;BME280;8040;50.254;10.960;2022-12-07T00:21:41;98156.09;;;5.41;78.12
15884;BME280;8040;50.254;10.960;2022-12-07T00:24:07;98155.28;;;5.45;77.86
15884;BME280;8040;50.254;10.960;2022-12-07T00:26:34;98121.69;;;5.33;78.13
15884;BME280;8040;50.254;10.960;2022-12-07T00:29:03;98135.41;;;5.46;77.86
15884;BME280;8040;50.254;10.960;2022-12-07T00:31:32;98124.66;;;5.41;77.19
15884;BME280;8040;50.254;10.960;2022-12-07T00:33:58;98113.63;;;5.33;77.50
15884;BME280;8040;50.254;10.960;2022-12-07T00:36:24;98103.69;;;5.23;78.33
15884;BME280;8040;50.254;10.960;2022-12-07T00:38:50;98110.66;;;5.19;77.58
15884;BME280;8040;50.254;10.960;2022-12-07T00:41:18;98104.22;;;5.15;77.97
15884;BME280;8040;50.254;10.960;2022-12-07T00:43:45;98109.56;;;5.20;78.31
15884;BME280;8040;50.254;10.960;2022-12-07T00:46:12;98103.94;;;5.22;78.34
15884;BME280;8040;50.254;10.960;2022-12-07T00:48:38;98112.53;;;5.24;78.08
15884;BME280;8040;50.254;10.960;2022-12-07T00:51:05;98090.22;;;5.23;78.57
15884;BME280;8040;50.254;10.960;2022-12-07T00:53:34;98099.09;;;5.29;77.99
15884;BME280;8040;50.254;10.960;2022-12-07T00:56:14;98105.28;;;5.24;77.72
15884;BME280;8040;50.254;10.960;2022-12-07T00:58:40;98110.66;;;5.29;77.68
15884;BME280;8040;50.254;10.960;2022-12-07T01:01:06;98117.13;;;5.33;77.20
15884;BME280;8040;50.254;10.960;2022-12-07T01:03:33;98116.84;;;5.30;77.45
15884;BME280;8040;50.254;10.960;2022-12-07T01:05:58;98099.38;;;5.17;77.52
15884;BME280;8040;50.254;10.960;2022-12-07T01:08:25;98106.38;;;5.23;78.09
15884;BME280;8040;50.254;10.960;2022-12-07T01:10:59;98099.63;;;5.16;77.60
15884;BME280;8040;50.254;10.960;2022-12-07T01:13:24;98081.63;;;5.11;77.58
15884;BME280;8040;50.254;10.960;2022-12-07T01:15:50;98089.97;;;5.15;77.52
15884;BME280;8040;50.254;10.960;2022-12-07T01:18:15;98087.00;;;5.06;77.60
15884;BME280;8040;50.254;10.960;2022-12-07T01:20:41;98070.34;;;5.04;77.50
15884;BME280;8040;50.254;10.960;2022-12-07T01:23:06;98068.72;;;5.08;77.65
15884;BME280;8040;50.254;10.960;2022-12-07T01:25:32;98069.78;;;5.02;77.92
15884;BME280;8040;50.254;10.960;2022-12-07T01:27:57;98075.19;;;4.97;77.55
15884;BME280;8040;50.254;10.960;2022-12-07T01:30:22;98100.44;;;5.06;77.74
15884;BME280;8040;50.254;10.960;2022-12-07T01:32:48;98097.19;;;4.94;77.58
15884;BME280;8040;50.254;10.960;2022-12-07T01:35:13;98092.91;;;4.98;78.16
15884;BME280;8040;50.254;10.960;2022-12-07T01:37:39;98111.72;;;5.18;78.02
15884;BME280;8040;50.254;10.960;2022-12-07T01:40:07;98104.47;;;5.04;77.91
15884;BME280;8040;50.254;10.960;2022-12-07T01:42:33;98100.44;;;5.01;78.08
15884;BME280;8040;50.254;10.960;2022-12-07T01:47:48;98098.81;;;5.05;77.53
15884;BME280;8040;50.254;10.960;2022-12-07T01:50:16;98087.00;;;5.11;77.11
15884;BME280;8040;50.254;10.960;2022-12-07T01:52:44;98079.47;;;5.03;76.68
15884;BME280;8040;50.254;10.960;2022-12-07T01:55:13;98081.06;;;4.94;77.55
15884;BME280;8040;50.254;10.960;2022-12-07T01:57:43;98078.91;;;4.86;77.88
15884;BME280;8040;50.254;10.960;2022-12-07T02:00:11;98089.94;;;4.90;77.83
15884;BME280;8040;50.254;10.960;2022-12-07T02:02:38;98100.41;;;4.86;77.88
15884;BME280;8040;50.254;10.960;2022-12-07T02:05:07;98086.94;;;4.71;78.02
15884;BME280;8040;50.254;10.960;2022-12-07T02:07:34;98085.88;;;4.77;78.21
15884;BME280;8040;50.254;10.960;2022-12-07T02:10:17;98092.38;;;4.91;77.79
15884;BME280;8040;50.254;10.960;2022-12-07T02:12:44;98079.69;;;4.72;78.16
15884;BME280;8040;50.254;10.960;2022-12-07T02:15:12;98079.97;;;4.75;78.44
15884;BME280;8040;50.254;10.960;2022-12-07T02:20:26;98083.75;;;4.89;78.06
15884;BME280;8040;50.254;10.960;2022-12-07T02:28:36;98079.19;;;4.95;79.18
15884;BME280;8040;50.254;10.960;2022-12-07T02:31:12;98075.97;;;4.98;78.69
15884;BME280;8040;50.254;10.960;2022-12-07T02:33:45;98080.28;;;4.94;78.30
15884;BME280;8040;50.254;10.960;2022-12-07T02:36:18;98077.31;;;4.95;78.72
15884;BME280;8040;50.254;10.960;2022-12-07T02:38:48;98080.25;;;4.99;78.55
15884;BME280;8040;50.254;10.960;2022-12-07T02:41:21;98063.06;;;4.95;78.80
15884;BME280;8040;50.254;10.960;2022-12-07T02:44:14;98083.22;;;5.02;78.29
15884;BME280;8040;50.254;10.960;2022-12-07T02:46:46;98063.34;;;4.98;77.98
15884;BME280;8040;50.254;10.960;2022-12-07T02:49:14;98066.03;;;4.98;78.59
15884;BME280;8040;50.254;10.960;2022-12-07T02:51:44;98060.38;;;5.05;77.60
15884;BME280;8040;50.254;10.960;2022-12-07T02:54:18;98062.28;;;5.09;77.53
15884;BME280;8040;50.254;10.960;2022-12-07T03:10:58;98041.56;;;4.85;78.43
15884;BME280;8040;50.254;10.960;2022-12-07T03:16:20;98057.69;;;5.10;77.53
15884;BME280;8040;50.254;10.960;2022-12-07T03:18:52;98052.06;;;5.06;77.40
15884;BME280;8040;50.254;10.960;2022-12-07T03:21:23;98062.81;;;5.11;77.32
15884;BME280;8040;50.254;10.960;2022-12-07T03:23:53;98042.38;;;4.95;78.23
15884;BME280;8040;50.254;10.960;2022-12-07T03:26:22;98062.53;;;5.18;78.00
15884;BME280;8040;50.254;10.960;2022-12-07T03:28:52;98054.22;;;5.09;77.75
15884;BME280;8040;50.254;10.960;2022-12-07T03:31:26;98052.84;;;5.17;77.66
15884;BME280;8040;50.254;10.960;2022-12-07T03:34:03;98054.75;;;5.21;77.22
15884;BME280;8040;50.254;10.960;2022-12-07T03:36:38;98053.94;;;5.16;77.20
15884;BME280;8040;50.254;10.960;2022-12-07T03:39:13;98053.38;;;5.24;77.85
15884;BME280;8040;50.254;10.960;2022-12-07T03:41:42;98039.69;;;5.05;77.32
15884;BME280;8040;50.254;10.960;2022-12-07T03:44:08;98040.22;;;5.02;77.33
15884;BME280;8040;50.254;10.960;2022-12-07T03:49:32;98050.19;;;5.12;77.00
15884;BME280;8040;50.254;10.960;2022-12-07T03:52:13;98048.28;;;5.22;77.46
15884;BME280;8040;50.254;10.960;2022-12-07T03:57:33;98033.78;;;5.13;77.20
15884;BME280;8040;50.254;10.960;2022-12-07T04:00:00;98014.16;;;5.03;76.54
15884;BME280;8040;50.254;10.960;2022-12-07T04:02:28;98023.56;;;5.15;77.02
15884;BME280;8040;50.254;10.960;2022-12-07T04:04:55;98021.66;;;5.11;77.21
15884;BME280;8040;50.254;10.960;2022-12-07T04:07:21;98018.72;;;5.07;77.04
15884;BME280;8040;50.254;10.960;2022-12-07T04:09:46;98016.84;;;4.93;76.33
15884;BME280;8040;50.254;10.960;2022-12-07T04:12:11;98019.81;;;4.91;76.36
15884;BME280;8040;50.254;10.960;2022-12-07T04:14:37;98020.88;;;4.85;76.51
15884;BME280;8040;50.254;10.960;2022-12-07T04:17:02;98029.50;;;4.97;77.60
15884;BME280;8040;50.254;10.960;2022-12-07T04:19:31;98016.03;;;4.92;78.02
15884;BME280;8040;50.254;10.960;2022-12-07T04:21:57;98024.91;;;5.08;78.20
15884;BME280;8040;50.254;10.960;2022-12-07T04:24:23;98024.09;;;5.02;77.23
15884;BME280;8040;50.254;10.960;2022-12-07T04:26:49;98017.09;;;5.01;77.64
15884;BME280;8040;50.254;10.960;2022-12-07T04:29:15;98010.69;;;4.97;78.26
15884;BME280;8040;50.254;10.960;2022-12-07T04:31:41;98019.78;;;5.06;77.64
15884;BME280;8040;50.254;10.960;2022-12-07T04:34:07;98027.88;;;5.06;77.69
15884;BME280;8040;50.254;10.960;2022-12-07T04:36:33;98010.38;;;4.99;77.53
15884;BME280;8040;50.254;10.960;2022-12-07T04:38:59;98011.72;;;5.01;77.65
15884;BME280;8040;50.254;10.960;2022-12-07T04:41:24;97999.66;;;4.94;77.83
15884;BME280;8040;50.254;10.960;2022-12-07T04:43:57;98007.44;;;5.00;77.27
15884;BME280;8040;50.254;10.960;2022-12-07T04:46:24;98012.81;;;5.05;77.47
15884;BME280;8040;50.254;10.960;2022-12-07T04:48:50;98002.34;;;4.94;77.49
15884;BME280;8040;50.254;10.960;2022-12-07T04:51:20;98011.72;;;5.01;77.29
15884;BME280;8040;50.254;10.960;2022-12-07T04:53:45;98005.31;;;4.97;78.24
15884;BME280;8040;50.254;10.960;2022-12-07T04:56:11;98008.53;;;5.04;77.79
15884;BME280;8040;50.254;10.960;2022-12-07T04:58:36;98015.50;;;5.10;77.24
15884;BME280;8040;50.254;10.960;2022-12-07T05:01:01;98006.91;;;5.03;76.97
15884;BME280;8040;50.254;10.960;2022-12-07T05:03:27;98007.44;;;4.95;76.90
15884;BME280;8040;50.254;10.960;2022-12-07T05:05:52;98005.81;;;4.94;77.20
15884;BME280;8040;50.254;10.960;2022-12-07T05:08:18;98002.59;;;4.92;77.35
15884;BME280;8040;50.254;10.960;2022-12-07T05:10:43;97999.91;;;4.92;77.00
15884;BME280;8040;50.254;10.960;2022-12-07T05:13:08;97995.63;;;4.86;76.78
15884;BME280;8040;50.254;10.960;2022-12-07T05:15:34;98011.72;;;5.01;77.08
15884;BME280;8040;50.254;10.960;2022-12-07T05:17:59;98004.75;;;4.90;77.62
15884;BME280;8040;50.254;10.960;2022-12-07T05:20:25;97998.28;;;4.96;77.63
15884;BME280;8040;50.254;10.960;2022-12-07T05:22:50;97997.50;;;5.06;77.33
15884;BME280;8040;50.254;10.960;2022-12-07T05:25:15;98016.28;;;5.11;77.64
15884;BME280;8040;50.254;10.960;2022-12-07T05:27:41;98006.63;;;5.10;77.48
15884;BME280;8040;50.254;10.960;2022-12-07T05:30:06;97988.09;;;5.03;77.30
15884;BME280;8040;50.254;10.960;2022-12-07T05:32:32;97994.00;;;4.95;76.84
15884;BME280;8040;50.254;10.960;2022-12-07T05:34:57;97995.34;;;5.03;77.23
15884;BME280;8040;50.254;10.960;2022-12-07T05:37:23;98004.22;;;5.03;77.02
15884;BME280;8040;50.254;10.960;2022-12-07T05:39:48;97997.22;;;5.12;77.48
15884;BME280;8040;50.254;10.960;2022-12-07T05:42:13;97992.38;;;5.09;77.23
15884;BME280;8040;50.254;10.960;2022-12-07T05:44:40;97986.19;;;4.99;77.02
15884;BME280;8040;50.254;10.960;2022-12-07T05:47:06;97973.56;;;4.89;77.20
15884;BME280;8040;50.254;10.960;2022-12-07T05:49:31;97994.25;;;5.04;77.36
15884;BME280;8040;50.254;10.960;2022-12-07T05:51:56;97998.81;;;5.13;77.24
15884;BME280;8040;50.254;10.960;2022-12-07T05:54:22;97989.69;;;5.14;77.63
15884;BME280;8040;50.254;10.960;2022-12-07T05:56:47;97984.84;;;5.16;77.73
15884;BME280;8040;50.254;10.960;2022-12-07T05:59:13;97989.41;;;5.26;77.81
15884;BME280;8040;50.254;10.960;2022-12-07T06:01:51;97981.06;;;5.22;77.58
15884;BME280;8040;50.254;10.960;2022-12-07T06:04:18;97981.09;;;5.17;77.13
15884;BME280;8040;50.254;10.960;2022-12-07T06:06:43;97973.56;;;5.09;77.25
15884;BME280;8040;50.254;10.960;2022-12-07T06:09:09;97980.56;;;5.15;77.62
15884;BME280;8040;50.254;10.960;2022-12-07T06:11:34;97988.06;;;5.08;77.30
15884;BME280;8040;50.254;10.960;2022-12-07T06:14:18;97998.00;;;5.23;77.31
15884;BME280;8040;50.254;10.960;2022-12-07T06:16:44;97995.06;;;5.24;77.76
15884;BME280;8040;50.254;10.960;2022-12-07T06:19:09;97980.53;;;5.20;78.04
15884;BME280;8040;50.254;10.960;2022-12-07T06:21:35;97975.72;;;5.12;78.25
15884;BME280;8040;50.254;10.960;2022-12-07T06:24:00;97995.88;;;5.25;77.97
15884;BME280;8040;50.254;10.960;2022-12-07T06:26:26;97993.44;;;5.23;78.22
15884;BME280;8040;50.254;10.960;2022-12-07T06:28:52;97978.41;;;5.07;77.97
15884;BME280;8040;50.254;10.960;2022-12-07T06:31:17;97996.38;;;5.22;78.62
15884;BME280;8040;50.254;10.960;2022-12-07T06:33:43;97987.50;;;5.26;78.65
15884;BME280;8040;50.254;10.960;2022-12-07T06:36:09;97998.56;;;5.15;78.04
15884;BME280;8040;50.254;10.960;2022-12-07T06:38:34;97998.28;;;5.21;78.38
15884;BME280;8040;50.254;10.960;2022-12-07T06:41:00;97965.50;;;4.99;78.17
15884;BME280;8040;50.254;10.960;2022-12-07T06:43:25;97976.53;;;5.03;78.04
15884;BME280;8040;50.254;10.960;2022-12-07T06:45:51;97988.59;;;5.20;78.84
15884;BME280;8040;50.254;10.960;2022-12-07T06:48:16;97987.50;;;5.26;79.34
15884;BME280;8040;50.254;10.960;2022-12-07T06:50:44;97969.25;;;5.18;78.59
15884;BME280;8040;50.254;10.960;2022-12-07T06:53:10;97989.94;;;5.28;78.52
15884;BME280;8040;50.254;10.960;2022-12-07T06:55:35;97966.28;;;5.25;78.99
15884;BME280;8040;50.254;10.960;2022-12-07T06:58:00;97984.25;;;5.44;78.63
15884;BME280;8040;50.254;10.960;2022-12-07T07:00:26;98003.06;;;5.49;78.42
15884;BME280;8040;50.254;10.960;2022-12-07T07:02:52;97996.91;;;5.49;78.21
15884;BME280;8040;50.254;10.960;2022-12-07T07:05:17;98005.16;;;5.67;78.59
15884;BME280;8040;50.254;10.960;2022-12-07T07:07:43;98006.22;;;5.86;79.00
15884;BME280;8040;50.254;10.960;2022-12-07T07:10:08;97996.53;;;5.80;77.11
15884;BME280;8040;50.254;10.960;2022-12-07T07:12:34;97991.97;;;5.71;77.00
15884;BME280;8040;50.254;10.960;2022-12-07T07:14:59;98003.00;;;5.69;76.77
15884;BME280;8040;50.254;10.960;2022-12-07T07:17:25;98004.38;;;5.67;77.44
15884;BME280;8040;50.254;10.960;2022-12-07T07:19:50;98002.50;;;5.62;77.16
15884;BME280;8040;50.254;10.960;2022-12-07T07:22:15;98011.09;;;5.64;77.21
15884;BME280;8040;50.254;10.960;2022-12-07T07:24:41;98002.50;;;5.57;77.29
15884;BME280;8040;50.254;10.960;2022-12-07T07:27:06;97999.00;;;5.62;77.55
15884;BME280;8040;50.254;10.960;2022-12-07T07:29:31;98003.03;;;5.59;77.05
15884;BME280;8040;50.254;10.960;2022-12-07T07:31:57;98009.53;;;5.53;76.97
15884;BME280;8040;50.254;10.960;2022-12-07T07:34:22;97995.50;;;5.51;77.73
15884;BME280;8040;50.254;10.960;2022-12-07T07:36:47;98006.56;;;5.55;77.37
15884;BME280;8040;50.254;10.960;2022-12-07T07:39:13;98007.09;;;5.52;77.48
15884;BME280;8040;50.254;10.960;2022-12-07T07:41:38;98021.31;;;5.62;77.85
15884;BME280;8040;50.254;10.960;2022-12-07T07:44:04;98010.88;;;5.51;77.65
15884;BME280;8040;50.254;10.960;2022-12-07T07:46:29;98013.81;;;5.59;77.42
15884;BME280;8040;50.254;10.960;2022-12-07T07:48:55;98016.19;;;5.76;78.41
15884;BME280;8040;50.254;10.960;2022-12-07T07:51:20;98013.75;;;5.74;77.60
15884;BME280;8040;50.254;10.960;2022-12-07T07:53:46;98012.16;;;5.83;77.79
15884;BME280;8040;50.254;10.960;2022-12-07T07:56:11;98006.25;;;5.71;77.55
15884;BME280;8040;50.254;10.960;2022-12-07T07:58:37;98009.44;;;5.78;77.53
15884;BME280;8040;50.254;10.960;2022-12-07T08:01:07;98011.59;;;5.81;77.35
15884;BME280;8040;50.254;10.960;2022-12-07T08:03:33;98027.75;;;5.81;77.26
15884;BME280;8040;50.254;10.960;2022-12-07T08:05:59;98015.34;;;5.75;77.65
15884;BME280;8040;50.254;10.960;2022-12-07T08:08:24;98019.41;;;5.83;78.08
15884;BME280;8040;50.254;10.960;2022-12-07T08:10:50;98029.06;;;5.89;77.03
15884;BME280;8040;50.254;10.960;2022-12-07T08:13:16;98036.06;;;5.85;77.17
15884;BME280;8040;50.254;10.960;2022-12-07T08:15:43;98035.03;;;5.81;77.30
15884;BME280;8040;50.254;10.960;2022-12-07T08:18:10;98042.00;;;5.77;77.38
15884;BME280;8040;50.254;10.960;2022-12-07T08:20:37;98041.19;;;5.86;77.65
15884;BME280;8040;50.254;10.960;2022-12-07T08:23:03;98036.13;;;5.80;77.49
15884;BME280;8040;50.254;10.960;2022-12-07T08:25:29;98015.41;;;5.70;77.70
15884;BME280;8040;50.254;10.960;2022-12-07T08:27:55;98021.28;;;5.77;77.52
15884;BME280;8040;50.254;10.960;2022-12-07T08:30:21;98014.59;;;5.70;77.79
15884;BME280;8040;50.254;10.960;2022-12-07T08:32:47;98004.91;;;5.59;78.09
15884;BME280;8040;50.254;10.960;2022-12-07T08:35:14;98029.38;;;5.72;77.69
15884;BME280;8040;50.254;10.960;2022-12-07T08:37:40;98033.44;;;5.80;77.95
15884;BME280;8040;50.254;10.960;2022-12-07T08:40:07;98022.38;;;5.71;77.41
15884;BME280;8040;50.254;10.960;2022-12-07T08:42:33;98033.66;;;5.78;77.80
15884;BME280;8040;50.254;10.960;2022-12-07T08:45:14;98019.44;;;5.73;77.90
15884;BME280;8040;50.254;10.960;2022-12-07T08:47:45;98036.31;;;5.93;77.91
15884;BME280;8040;50.254;10.960;2022-12-07T08:50:13;98039.56;;;5.90;77.97
15884;BME280;8040;50.254;10.960;2022-12-07T08:52:40;98039.59;;;5.85;77.60
15884;BME280;8040;50.254;10.960;2022-12-07T08:55:08;98032.34;;;5.81;78.35
15884;BME280;8040;50.254;10.960;2022-12-07T08:57:34;98041.19;;;5.96;78.19
15884;BME280;8040;50.254;10.960;2022-12-07T09:00:01;98054.13;;;5.89;77.52
15884;BME280;8040;50.254;10.960;2022-12-07T09:02:26;98048.22;;;5.82;77.58
15884;BME280;8040;50.254;10.960;2022-12-07T09:04:52;98045.25;;;5.74;77.71
15884;BME280;8040;50.254;10.960;2022-12-07T09:07:17;98034.75;;;5.72;78.29
15884;BME280;8040;50.254;10.960;2022-12-07T09:09:43;98043.34;;;5.79;78.25
15884;BME280;8040;50.254;10.960;2022-12-07T09:12:08;98029.91;;;5.84;78.66
15884;BME280;8040;50.254;10.960;2022-12-07T09:14:34;98040.41;;;5.86;78.75
15884;BME280;8040;50.254;10.960;2022-12-07T09:17:10;98057.84;;;5.98;78.91
15884;BME280;8040;50.254;10.960;2022-12-07T09:19:37;98039.56;;;5.95;78.10
15884;BME280;8040;50.254;10.960;2022-12-07T09:22:03;98059.44;;;6.04;78.90
15884;BME280;8040;50.254;10.960;2022-12-07T09:24:30;98058.69;;;5.84;79.54
15884;BME280;8040;50.254;10.960;2022-12-07T09:26:55;98053.03;;;5.90;79.28
15884;BME280;8040;50.254;10.960;2022-12-07T09:29:21;98060.53;;;5.98;78.75
15884;BME280;8040;50.254;10.960;2022-12-07T09:31:46;98065.94;;;5.93;78.34
15884;BME280;8040;50.254;10.960;2022-12-07T09:34:11;98039.59;;;5.85;79.21
15884;BME280;8040;50.254;10.960;2022-12-07T09:36:37;98057.25;;;6.16;79.44
15884;BME280;8040;50.254;10.960;2022-12-07T09:39:02;98045.41;;;6.12;78.97
15884;BME280;8040;50.254;10.960;2022-12-07T09:41:30;98050.78;;;6.12;78.22
15884;BME280;8040;50.254;10.960;2022-12-07T09:44:04;98025.50;;;6.08;77.64
15884;BME280;8040;50.254;10.960;2022-12-07T09:46:34;98049.63;;;6.33;78.65
15884;BME280;8040;50.254;10.960;2022-12-07T09:49:01;98035.13;;;6.24;78.14
15884;BME280;8040;50.254;10.960;2022-12-07T09:51:28;98021.13;;;6.22;78.23
15884;BME280;8040;50.254;10.960;2022-12-07T09:53:55;98041.78;;;6.37;77.87
15884;BME280;8040;50.254;10.960;2022-12-07T09:56:22;98042.63;;;6.37;77.81
15884;BME280;8040;50.254;10.960;2022-12-07T09:58:49;98032.69;;;6.28;76.84
15884;BME280;8040;50.254;10.960;2022-12-07T10:01:17;98030.53;;;6.30;77.74
15884;BME280;8040;50.254;10.960;2022-12-07T10:03:50;98037.72;;;6.44;77.44
15884;BME280;8040;50.254;10.960;2022-12-07T10:06:16;98015.69;;;6.37;77.98
15884;BME280;8040;50.254;10.960;2022-12-07T10:08:42;98020.47;;;6.45;77.12
15884;BME280;8040;50.254;10.960;2022-12-07T10:11:09;98031.72;;;6.57;77.72
15884;BME280;8040;50.254;10.960;2022-12-07T10:13:45;98034.47;;;6.47;76.71
15884;BME280;8040;50.254;10.960;2022-12-07T10:16:38;98018.66;;;6.36;77.24
15884;BME280;8040;50.254;10.960;2022-12-07T10:22:16;98027.97;;;6.48;76.34
15884;BME280;8040;50.254;10.960;2022-12-07T10:24:43;98020.72;;;6.49;76.89
15884;BME280;8040;50.254;10.960;2022-12-07T10:27:21;98022.84;;;6.52;77.46
15884;BME280;8040;50.254;10.960;2022-12-07T10:29:51;98017.41;;;6.62;76.57
15884;BME280;8040;50.254;10.960;2022-12-07T10:34:43;98018.75;;;6.59;76.98
15884;BME280;8040;50.254;10.960;2022-12-07T10:37:14;98017.97;;;6.59;76.55
15884;BME280;8040;50.254;10.960;2022-12-07T10:39:50;98009.09;;;6.53;76.75
15884;BME280;8040;50.254;10.960;2022-12-07T10:42:19;98014.94;;;6.65;76.67
15884;BME280;8040;50.254;10.960;2022-12-07T10:44:45;98009.28;;;6.67;76.82
15884;BME280;8040;50.254;10.960;2022-12-07T10:53:18;98002.53;;;6.69;76.14
15884;BME280;8040;50.254;10.960;2022-12-07T10:55:56;98005.75;;;6.71;75.76
15884;BME280;8040;50.254;10.960;2022-12-07T10:58:40;97999.56;;;6.71;76.07
15884;BME280;8040;50.254;10.960;2022-12-07T11:04:10;97999.19;;;6.82;76.42
15884;BME280;8040;50.254;10.960;2022-12-07T11:12:52;97989.16;;;6.88;76.31
15884;BME280;8040;50.254;10.960;2022-12-07T11:15:53;97996.13;;;6.94;75.03
15884;BME280;8040;50.254;10.960;2022-12-07T11:19:28;97984.34;;;6.85;75.39
15884;BME280;8040;50.254;10.960;2022-12-07T11:24:36;97974.88;;;6.92;75.58
15884;BME280;8040;50.254;10.960;2022-12-07T11:35:36;97970.25;;;7.21;75.71
15884;BME280;8040;50.254;10.960;2022-12-07T11:38:12;97966.09;;;7.10;74.61
15884;BME280;8040;50.254;10.960;2022-12-07T11:40:40;97953.78;;;6.99;74.35
15884;BME280;8040;50.254;10.960;2022-12-07T11:43:27;97960.25;;;6.98;74.06
15884;BME280;8040;50.254;10.960;2022-12-07T11:46:04;97961.00;;;7.04;74.32
15884;BME280;8040;50.254;10.960;2022-12-07T11:48:46;97941.91;;;7.00;73.99
15884;BME280;8040;50.254;10.960;2022-12-07T11:51:13;97942.13;;;7.04;74.06
15884;BME280;8040;50.254;10.960;2022-12-07T11:53:42;97952.66;;;7.28;74.53
15884;BME280;8040;50.254;10.960;2022-12-07T11:56:13;97961.75;;;7.38;73.44
15884;BME280;8040;50.254;10.960;2022-12-07T12:06:36;97931.91;;;7.29;71.51
15884;BME280;8040;50.254;10.960;2022-12-07T12:09:12;97923.59;;;7.26;72.05
15884;BME280;8040;50.254;10.960;2022-12-07T12:14:40;97931.53;;;7.35;71.15
15884;BME280;8040;50.254;10.960;2022-12-07T12:20:41;97933.50;;;7.30;71.18
15884;BME280;8040;50.254;10.960;2022-12-07T12:23:11;97925.13;;;7.32;71.39
15884;BME280;8040;50.254;10.960;2022-12-07T12:25:41;97924.81;;;7.33;71.13
15884;BME280;8040;50.254;10.960;2022-12-07T12:30:45;97892.63;;;7.18;71.36
15884;BME280;8040;50.254;10.960;2022-12-07T12:33:25;97901.19;;;7.25;71.57
15884;BME280;8040;50.254;10.960;2022-12-07T12:49:40;97904.47;;;7.45;71.17
15884;BME280;8040;50.254;10.960;2022-12-07T12:57:34;97891.09;;;7.35;70.41
15884;BME280;8040;50.254;10.960;2022-12-07T13:00:14;97893.63;;;7.50;70.89
15884;BME280;8040;50.254;10.960;2022-12-07T13:02:54;97896.81;;;7.52;69.58
15884;BME280;8040;50.254;10.960;2022-12-07T13:05:27;97902.00;;;7.49;68.97
15884;BME280;8040;50.254;10.960;2022-12-07T13:15:48;97906.13;;;7.65;70.08
15884;BME280;8040;50.254;10.960;2022-12-07T13:29:12;97905.66;;;7.11;69.79
15884;BME280;8040;50.254;10.960;2022-12-07T13:34:34;97897.59;;;6.83;69.74
15884;BME280;8040;50.254;10.960;2022-12-07T13:37:30;97902.19;;;6.77;70.15
15884;BME280;8040;50.254;10.960;2022-12-07T13:39:59;97891.22;;;6.69;71.09
15884;BME280;8040;50.254;10.960;2022-12-07T13:44:56;97890.47;;;6.63;71.62
15884;BME280;8040;50.254;10.960;2022-12-07T13:47:41;97906.53;;;6.73;71.92
15884;BME280;8040;50.254;10.960;2022-12-07T13:52:58;97893.06;;;6.73;71.72
15884;BME280;8040;50.254;10.960;2022-12-07T13:55:24;97879.31;;;6.75;71.73
15884;BME280;8040;50.254;10.960;2022-12-07T13:57:51;97893.44;;;6.90;71.23
15884;BME280;8040;50.254;10.960;2022-12-07T14:00:20;97877.09;;;6.82;70.53
15884;BME280;8040;50.254;10.960;2022-12-07T14:03:00;97887.50;;;6.93;70.19
15884;BME280;8040;50.254;10.960;2022-12-07T14:05:31;97895.19;;;7.05;70.84
15884;BME280;8040;50.254;10.960;2022-12-07T14:10:55;97894.00;;;6.92;69.87
15884;BME280;8040;50.254;10.960;2022-12-07T14:15:57;97903.25;;;6.81;70.76
15884;BME280;8040;50.254;10.960;2022-12-07T14:18:30;97892.00;;;6.74;70.78
15884;BME280;8040;50.254;10.960;2022-12-07T14:23:37;97887.34;;;6.51;70.75
15884;BME280;8040;50.254;10.960;2022-12-07T14:26:14;97885.34;;;6.33;70.85
15884;BME280;8040;50.254;10.960;2022-12-07T14:28:42;97877.63;;;6.22;71.39
15884;BME280;8040;50.254;10.960;2022-12-07T14:31:16;97890.22;;;6.31;72.75
15884;BME280;8040;50.254;10.960;2022-12-07T14:33:41;97909.34;;;6.30;72.09
15884;BME280;8040;50.254;10.960;2022-12-07T14:36:12;97900.53;;;6.19;72.09
15884;BME280;8040;50.254;10.960;2022-12-07T14:38:37;97900.81;;;6.13;72.22
15884;BME280;8040;50.254;10.960;2022-12-07T14:41:04;97880.16;;;6.03;72.89
15884;BME280;8040;50.254;10.960;2022-12-07T14:43:50;97887.72;;;6.01;73.03
15884;BME280;8040;50.254;10.960;2022-12-07T14:46:15;97876.13;;;6.01;72.20
15884;BME280;8040;50.254;10.960;2022-12-07T14:48:41;97879.09;;;5.99;73.24
15884;BME280;8040;50.254;10.960;2022-12-07T14:51:08;97881.50;;;6.01;73.82
15884;BME280;8040;50.254;10.960;2022-12-07T14:53:39;97871.06;;;5.94;73.56
15884;BME280;8040;50.254;10.960;2022-12-07T14:56:05;97875.63;;;5.94;73.24
15884;BME280;8040;50.254;10.960;2022-12-07T14:58:31;97867.88;;;5.87;73.43
15884;BME280;8040;50.254;10.960;2022-12-07T15:00:57;97866.22;;;5.91;73.74
15884;BME280;8040;50.254;10.960;2022-12-07T15:03:23;97875.38;;;5.95;73.68
15884;BME280;8040;50.254;10.960;2022-12-07T15:05:48;97882.88;;;5.98;73.75
15884;BME280;8040;50.254;10.960;2022-12-07T15:08:13;97866.47;;;5.95;74.46
15884;BME280;8040;50.254;10.960;2022-12-07T15:10:39;97876.72;;;5.93;74.05
15884;BME280;8040;50.254;10.960;2022-12-07T15:13:06;97884.44;;;6.04;74.08
15884;BME280;8040;50.254;10.960;2022-12-07T15:16:01;97874.78;;;6.03;73.86
15884;BME280;8040;50.254;10.960;2022-12-07T15:18:26;97857.84;;;5.98;74.04
15884;BME280;8040;50.254;10.960;2022-12-07T15:20:51;97863.75;;;6.00;73.69
15884;BME280;8040;50.254;10.960;2022-12-07T15:23:17;97846.31;;;5.92;73.83
15884;BME280;8040;50.254;10.960;2022-12-07T15:25:43;97855.16;;;5.98;74.54
15884;BME280;8040;50.254;10.960;2022-12-07T15:28:09;97869.88;;;6.10;74.24
15884;BME280;8040;50.254;10.960;2022-12-07T15:30:37;97853.00;;;6.00;74.16
15884;BME280;8040;50.254;10.960;2022-12-07T15:33:03;97862.31;;;6.12;74.16
15884;BME280;8040;50.254;10.960;2022-12-07T15:35:28;97859.63;;;6.12;74.05